Home > Products > Valid Products > TAF

000
FTUS45 KBOI 291120
TAFBNO
TAF
KBNO 291120Z 2912/3012 VRB05KT P6SM BKN200=



000
FTUS45 KBOI 291120
TAFBNO
TAF
KBNO 291120Z 2912/3012 VRB05KT P6SM BKN200=



000
FTUS45 KBOI 291120
TAFMYL
TAF
KMYL 291120Z 2912/3012 VRB05KT P6SM SCT100 BKN200=



000
FTUS45 KBOI 291120
TAFBKE
TAF
KBKE 291120Z 2912/3012 VRB03KT P6SM BKN200
     FM291800 09008KT P6SM BKN100
     FM300200 VRB05KT P6SM SCT100 BKN200=



000
FTUS45 KBOI 291120
TAFJER
TAF
KJER 291120Z 2912/3012 VRB05KT P6SM SCT200
     FM291800 25007KT P6SM BKN200
     FM300400 11006KT P6SM BKN200=



000
FTUS45 KBOI 291120
TAFBKE
TAF
KBKE 291120Z 2912/3012 VRB03KT P6SM BKN200
     FM291800 09008KT P6SM BKN100
     FM300200 VRB05KT P6SM SCT100 BKN200=



000
FTUS45 KBOI 291120
TAFJER
TAF
KJER 291120Z 2912/3012 VRB05KT P6SM SCT200
     FM291800 25007KT P6SM BKN200
     FM300400 11006KT P6SM BKN200=



000
FTUS45 KBOI 291120
TAFBOI
TAF
KBOI 291120Z 2912/3012 14005KT P6SM BKN200
     FM291500 VRB05KT P6SM SCT100 BKN200
     FM300300 14006KT P6SM BKN200=



000
FTUS45 KBOI 291120
TAFBNO
TAF
KBNO 291120Z 2912/3012 VRB05KT P6SM BKN200=



000
FTUS45 KBOI 291120
TAFBKE
TAF
KBKE 291120Z 2912/3012 VRB03KT P6SM BKN200
     FM291800 09008KT P6SM BKN100
     FM300200 VRB05KT P6SM SCT100 BKN200=



000
FTUS45 KBOI 291120
TAFTWF
TAF
KTWF 291120Z 2912/3012 19012KT P6SM SCT200
     FM291700 28009KT P6SM BKN200
     FM300300 18007KT P6SM BKN200=



000
FTUS45 KBOI 291120
TAFBKE
TAF
KBKE 291120Z 2912/3012 VRB03KT P6SM BKN200
     FM291800 09008KT P6SM BKN100
     FM300200 VRB05KT P6SM SCT100 BKN200=



000
FTUS45 KBOI 291120
TAFTWF
TAF
KTWF 291120Z 2912/3012 19012KT P6SM SCT200
     FM291700 28009KT P6SM BKN200
     FM300300 18007KT P6SM BKN200=



000
FTUS45 KBOI 291120
TAFBNO
TAF
KBNO 291120Z 2912/3012 VRB05KT P6SM BKN200=



000
FTUS45 KBOI 291120
TAFJER
TAF
KJER 291120Z 2912/3012 VRB05KT P6SM SCT200
     FM291800 25007KT P6SM BKN200
     FM300400 11006KT P6SM BKN200=



000
FTUS45 KBOI 291120
TAFMYL
TAF
KMYL 291120Z 2912/3012 VRB05KT P6SM SCT100 BKN200=



000
FTUS45 KBOI 291120
TAFTWF
TAF
KTWF 291120Z 2912/3012 19012KT P6SM SCT200
     FM291700 28009KT P6SM BKN200
     FM300300 18007KT P6SM BKN200=



000
FTUS45 KBOI 291120
TAFBOI
TAF
KBOI 291120Z 2912/3012 14005KT P6SM BKN200
     FM291500 VRB05KT P6SM SCT100 BKN200
     FM300300 14006KT P6SM BKN200=



000
FTUS45 KBOI 291120
TAFTWF
TAF
KTWF 291120Z 2912/3012 19012KT P6SM SCT200
     FM291700 28009KT P6SM BKN200
     FM300300 18007KT P6SM BKN200=



000
FTUS45 KBOI 291120
TAFJER
TAF
KJER 291120Z 2912/3012 VRB05KT P6SM SCT200
     FM291800 25007KT P6SM BKN200
     FM300400 11006KT P6SM BKN200=



000
FTUS45 KBOI 291120
TAFBOI
TAF
KBOI 291120Z 2912/3012 14005KT P6SM BKN200
     FM291500 VRB05KT P6SM SCT100 BKN200
     FM300300 14006KT P6SM BKN200=



000
FTUS45 KBOI 291120
TAFMYL
TAF
KMYL 291120Z 2912/3012 VRB05KT P6SM SCT100 BKN200=



000
FTUS45 KBOI 291120
TAFMYL
TAF
KMYL 291120Z 2912/3012 VRB05KT P6SM SCT100 BKN200=



000
FTUS45 KBOI 291120
TAFBOI
TAF
KBOI 291120Z 2912/3012 14005KT P6SM BKN200
     FM291500 VRB05KT P6SM SCT100 BKN200
     FM300300 14006KT P6SM BKN200=



000
FTUS45 KBOI 290520
TAFBOI
TAF
KBOI 290520Z 2906/3006 VRB05KT P6SM SCT200
     FM300200 14007KT P6SM SCT200=



000
FTUS45 KBOI 290520
TAFTWF
TAF
KTWF 290520Z 2906/3006 20012KT P6SM SCT200
     FM291700 30009KT P6SM BKN200
     FM300200 18007KT P6SM SCT200=



000
FTUS45 KBOI 290520
TAFBOI
TAF
KBOI 290520Z 2906/3006 VRB05KT P6SM SCT200
     FM300200 14007KT P6SM SCT200=



000
FTUS45 KBOI 290520
TAFTWF
TAF
KTWF 290520Z 2906/3006 20012KT P6SM SCT200
     FM291700 30009KT P6SM BKN200
     FM300200 18007KT P6SM SCT200=



000
FTUS45 KBOI 290520
TAFBOI
TAF
KBOI 290520Z 2906/3006 VRB05KT P6SM SCT200
     FM300200 14007KT P6SM SCT200=



000
FTUS45 KBOI 290520
TAFMYL
TAF
KMYL 290520Z 2906/3006 VRB05KT P6SM SCT100 BKN200=



000
FTUS45 KBOI 290520
TAFJER
TAF
KJER 290520Z 2906/3006 24010KT P6SM SCT200
     FM290900 07007KT P6SM SCT200
     FM291800 24005KT P6SM SCT200
     FM300200 14007KT P6SM SCT200=



000
FTUS45 KBOI 290520
TAFBKE
TAF
KBKE 290520Z 2906/3006 VRB05KT P6SM BKN150
     FM291800 09008KT P6SM BKN100
     FM300200 VRB05KT P6SM SCT100 BKN200=



000
FTUS45 KBOI 290520
TAFJER
TAF
KJER 290520Z 2906/3006 24010KT P6SM SCT200
     FM290900 07007KT P6SM SCT200
     FM291800 24005KT P6SM SCT200
     FM300200 14007KT P6SM SCT200=



000
FTUS45 KBOI 290520
TAFBNO
TAF
KBNO 290520Z 2906/3006 VRB05KT P6SM BKN200=



000
FTUS45 KBOI 290520
TAFMYL
TAF
KMYL 290520Z 2906/3006 VRB05KT P6SM SCT100 BKN200=



000
FTUS45 KBOI 290520
TAFBKE
TAF
KBKE 290520Z 2906/3006 VRB05KT P6SM BKN150
     FM291800 09008KT P6SM BKN100
     FM300200 VRB05KT P6SM SCT100 BKN200=



000
FTUS45 KBOI 290520
TAFBNO
TAF
KBNO 290520Z 2906/3006 VRB05KT P6SM BKN200=



000
FTUS45 KBOI 290520
TAFBKE
TAF
KBKE 290520Z 2906/3006 VRB05KT P6SM BKN150
     FM291800 09008KT P6SM BKN100
     FM300200 VRB05KT P6SM SCT100 BKN200=



000
FTUS45 KBOI 290520
TAFJER
TAF
KJER 290520Z 2906/3006 24010KT P6SM SCT200
     FM290900 07007KT P6SM SCT200
     FM291800 24005KT P6SM SCT200
     FM300200 14007KT P6SM SCT200=



000
FTUS45 KBOI 290520
TAFMYL
TAF
KMYL 290520Z 2906/3006 VRB05KT P6SM SCT100 BKN200=



000
FTUS45 KBOI 290520
TAFTWF
TAF
KTWF 290520Z 2906/3006 20012KT P6SM SCT200
     FM291700 30009KT P6SM BKN200
     FM300200 18007KT P6SM SCT200=



000
FTUS45 KBOI 290520
TAFBNO
TAF
KBNO 290520Z 2906/3006 VRB05KT P6SM BKN200=



000
FTUS45 KBOI 290156 AAA
TAFJER
TAF AMD
KJER 290156Z 2902/2924 25015KT P6SM SCT200
     FM290300 24010KT P6SM SCT200
     FM290900 07007KT P6SM SCT200
     FM291800 24005KT P6SM SCT200=



000
FTUS45 KBOI 290156 AAA
TAFJER
TAF AMD
KJER 290156Z 2902/2924 25015KT P6SM SCT200
     FM290300 24010KT P6SM SCT200
     FM290900 07007KT P6SM SCT200
     FM291800 24005KT P6SM SCT200=



000
FTUS45 KBOI 290156 AAA
TAFJER
TAF AMD
KJER 290156Z 2902/2924 25015KT P6SM SCT200
     FM290300 24010KT P6SM SCT200
     FM290900 07007KT P6SM SCT200
     FM291800 24005KT P6SM SCT200=



000
FTUS45 KBOI 290156 AAA
TAFJER
TAF AMD
KJER 290156Z 2902/2924 25015KT P6SM SCT200
     FM290300 24010KT P6SM SCT200
     FM290900 07007KT P6SM SCT200
     FM291800 24005KT P6SM SCT200=



000
FTUS45 KBOI 282336
TAFMYL
TAF
KMYL 282336Z 2900/2924 25010KT P6SM SCT050 BKN200
     FM290300 VRB05KT P6SM SCT200=



000
FTUS45 KBOI 282336
TAFMYL
TAF
KMYL 282336Z 2900/2924 25010KT P6SM SCT050 BKN200
     FM290300 VRB05KT P6SM SCT200=



000
FTUS45 KBOI 282336
TAFBNO
TAF
KBNO 282336Z 2900/2924 26010KT P6SM SCT200
     FM290300 VRB05KT P6SM SCT200=



000
FTUS45 KBOI 282336
TAFTWF
TAF
KTWF 282336Z 2900/2924 27020G30KT P6SM SCT200
     FM290200 23015KT P6SM SCT200
     FM290600 20012KT P6SM SCT200
     FM291700 30009KT P6SM SCT200=



000
FTUS45 KBOI 282336
TAFBOI
TAF
KBOI 282336Z 2900/2924 31010KT P6SM SCT200
     FM290300 VRB05KT P6SM SCT200=



000
FTUS45 KBOI 282336
TAFBNO
TAF
KBNO 282336Z 2900/2924 26010KT P6SM SCT200
     FM290300 VRB05KT P6SM SCT200=



000
FTUS45 KBOI 282336
TAFBKE
TAF
KBKE 282336Z 2900/2924 31010KT P6SM SCT200
     FM290400 VRB05KT P6SM SCT200=



000
FTUS45 KBOI 282336
TAFJER
TAF
KJER 282336Z 2900/2924 25025G35KT P6SM SCT200
     FM290300 24010KT P6SM SCT200
     FM290900 07007KT P6SM SCT200
     FM291800 24005KT P6SM SCT200=



000
FTUS45 KBOI 282336
TAFMYL
TAF
KMYL 282336Z 2900/2924 25010KT P6SM SCT050 BKN200
     FM290300 VRB05KT P6SM SCT200=



000
FTUS45 KBOI 282336
TAFBOI
TAF
KBOI 282336Z 2900/2924 31010KT P6SM SCT200
     FM290300 VRB05KT P6SM SCT200=



000
FTUS45 KBOI 282336
TAFTWF
TAF
KTWF 282336Z 2900/2924 27020G30KT P6SM SCT200
     FM290200 23015KT P6SM SCT200
     FM290600 20012KT P6SM SCT200
     FM291700 30009KT P6SM SCT200=



000
FTUS45 KBOI 282336
TAFJER
TAF
KJER 282336Z 2900/2924 25025G35KT P6SM SCT200
     FM290300 24010KT P6SM SCT200
     FM290900 07007KT P6SM SCT200
     FM291800 24005KT P6SM SCT200=



000
FTUS45 KBOI 282336
TAFBKE
TAF
KBKE 282336Z 2900/2924 31010KT P6SM SCT200
     FM290400 VRB05KT P6SM SCT200=



000
FTUS45 KBOI 282336
TAFBNO
TAF
KBNO 282336Z 2900/2924 26010KT P6SM SCT200
     FM290300 VRB05KT P6SM SCT200=



000
FTUS45 KBOI 282336
TAFBKE
TAF
KBKE 282336Z 2900/2924 31010KT P6SM SCT200
     FM290400 VRB05KT P6SM SCT200=



000
FTUS45 KBOI 282336
TAFMYL
TAF
KMYL 282336Z 2900/2924 25010KT P6SM SCT050 BKN200
     FM290300 VRB05KT P6SM SCT200=



000
FTUS45 KBOI 282336
TAFBOI
TAF
KBOI 282336Z 2900/2924 31010KT P6SM SCT200
     FM290300 VRB05KT P6SM SCT200=



000
FTUS45 KBOI 282336
TAFJER
TAF
KJER 282336Z 2900/2924 25025G35KT P6SM SCT200
     FM290300 24010KT P6SM SCT200
     FM290900 07007KT P6SM SCT200
     FM291800 24005KT P6SM SCT200=



000
FTUS45 KBOI 282336
TAFTWF
TAF
KTWF 282336Z 2900/2924 27020G30KT P6SM SCT200
     FM290200 23015KT P6SM SCT200
     FM290600 20012KT P6SM SCT200
     FM291700 30009KT P6SM SCT200=



000
FTUS45 KBOI 282336
TAFTWF
TAF
KTWF 282336Z 2900/2924 27020G30KT P6SM SCT200
     FM290200 23015KT P6SM SCT200
     FM290600 20012KT P6SM SCT200
     FM291700 30009KT P6SM SCT200=



000
FTUS45 KBOI 282336
TAFBKE
TAF
KBKE 282336Z 2900/2924 31010KT P6SM SCT200
     FM290400 VRB05KT P6SM SCT200=



000
FTUS45 KBOI 282336
TAFJER
TAF
KJER 282336Z 2900/2924 25025G35KT P6SM SCT200
     FM290300 24010KT P6SM SCT200
     FM290900 07007KT P6SM SCT200
     FM291800 24005KT P6SM SCT200=



000
FTUS45 KBOI 282336
TAFBOI
TAF
KBOI 282336Z 2900/2924 31010KT P6SM SCT200
     FM290300 VRB05KT P6SM SCT200=



000
FTUS45 KBOI 282336
TAFBNO
TAF
KBNO 282336Z 2900/2924 26010KT P6SM SCT200
     FM290300 VRB05KT P6SM SCT200=



000
FTUS45 KBOI 281723
TAFBNO
TAF
KBNO 281723Z 2818/2918 25015KT P6SM SCT150
     FM290300 VRB05KT P6SM SKC=



000
FTUS45 KBOI 281723
TAFJER
TAF
KJER 281723Z 2818/2918 25025G35KT P6SM SCT120
     FM290300 24010KT P6SM SKC=



000
FTUS45 KBOI 281723
TAFMYL
TAF
KMYL 281723Z 2818/2918 30008KT P6SM VCSH SCT100
     FM282000 25010KT P6SM SCT050 BKN100
     FM290300 VRB03KT P6SM SKC=



000
FTUS45 KBOI 281723
TAFBKE
TAF
KBKE 281723Z 2818/2918 31015G20KT P6SM SCT150
     FM290000 31010KT P6SM SCT250
     FM290400 VRB03KT P6SM SKC=



000
FTUS45 KBOI 281723
TAFMYL
TAF
KMYL 281723Z 2818/2918 30008KT P6SM VCSH SCT100
     FM282000 25010KT P6SM SCT050 BKN100
     FM290300 VRB03KT P6SM SKC=



000
FTUS45 KBOI 281723
TAFBNO
TAF
KBNO 281723Z 2818/2918 25015KT P6SM SCT150
     FM290300 VRB05KT P6SM SKC=



000
FTUS45 KBOI 281723
TAFTWF
TAF
KTWF 281723Z 2818/2918 27025G35KT P6SM SCT120
     FM290600 20012KT P6SM SKC=



000
FTUS45 KBOI 281723
TAFBOI
TAF
KBOI 281723Z 2818/2918 31020G30KT P6SM SCT120
     FM282200 31018G22KT P6SM SCT150
     FM290000 31009KT P6SM SCT200
     FM290300 VRB05KT P6SM SKC=



000
FTUS45 KBOI 281723
TAFJER
TAF
KJER 281723Z 2818/2918 25025G35KT P6SM SCT120
     FM290300 24010KT P6SM SKC=



000
FTUS45 KBOI 281723
TAFBKE
TAF
KBKE 281723Z 2818/2918 31015G20KT P6SM SCT150
     FM290000 31010KT P6SM SCT250
     FM290400 VRB03KT P6SM SKC=



000
FTUS45 KBOI 281723
TAFTWF
TAF
KTWF 281723Z 2818/2918 27025G35KT P6SM SCT120
     FM290600 20012KT P6SM SKC=



000
FTUS45 KBOI 281723
TAFBOI
TAF
KBOI 281723Z 2818/2918 31020G30KT P6SM SCT120
     FM282200 31018G22KT P6SM SCT150
     FM290000 31009KT P6SM SCT200
     FM290300 VRB05KT P6SM SKC=



000
FTUS45 KBOI 281723
TAFBKE
TAF
KBKE 281723Z 2818/2918 31015G20KT P6SM SCT150
     FM290000 31010KT P6SM SCT250
     FM290400 VRB03KT P6SM SKC=



000
FTUS45 KBOI 281723
TAFMYL
TAF
KMYL 281723Z 2818/2918 30008KT P6SM VCSH SCT100
     FM282000 25010KT P6SM SCT050 BKN100
     FM290300 VRB03KT P6SM SKC=



000
FTUS45 KBOI 281723
TAFJER
TAF
KJER 281723Z 2818/2918 25025G35KT P6SM SCT120
     FM290300 24010KT P6SM SKC=



000
FTUS45 KBOI 281723
TAFBNO
TAF
KBNO 281723Z 2818/2918 25015KT P6SM SCT150
     FM290300 VRB05KT P6SM SKC=



000
FTUS45 KBOI 281120
TAFTWF
TAF
KTWF 281120Z 2812/2912 20015KT P6SM SKC
     FM281500 25020G30KT P6SM SCT040 BKN090
     FM281800 27025G35KT P6SM SCT060 BKN200
     FM290200 24015KT P6SM SCT200
     FM290600 20010KT P6SM SKC=



000
FTUS45 KBOI 281120
TAFMYL
TAF
KMYL 281120Z 2812/2912 29006KT P6SM VCSH SCT030 OVC050
     FM281600 30008KT P6SM VCSH SCT030 BKN050
     FM282000 25010KT P6SM SCT050 BKN100
     FM290300 VRB03KT P6SM SKC=



000
FTUS45 KBOI 281120
TAFBNO
TAF
KBNO 281120Z 2812/2912 25015KT P6SM SCT030 BKN045
     FM282300 27009KT P6SM SCT250
     FM290500 VRB05KT P6SM SKC=



000
FTUS45 KBOI 281120
TAFMYL
TAF
KMYL 281120Z 2812/2912 29006KT P6SM VCSH SCT030 OVC050
     FM281600 30008KT P6SM VCSH SCT030 BKN050
     FM282000 25010KT P6SM SCT050 BKN100
     FM290300 VRB03KT P6SM SKC=



000
FTUS45 KBOI 281120
TAFBKE
TAF
KBKE 281120Z 2812/2912 31015G25KT P6SM VCSH SCT035 OVC050
      TEMPO 2812/2814 -SHRA BKN035
     FM281500 31015KT P6SM SCT080 BKN150
     FM290000 31010KT P6SM SCT250
     FM290400 VRB03KT P6SM SKC=



000
FTUS45 KBOI 281120
TAFBKE
TAF
KBKE 281120Z 2812/2912 31015G25KT P6SM VCSH SCT035 OVC050
      TEMPO 2812/2814 -SHRA BKN035
     FM281500 31015KT P6SM SCT080 BKN150
     FM290000 31010KT P6SM SCT250
     FM290400 VRB03KT P6SM SKC=



000
FTUS45 KBOI 281120
TAFBOI
TAF
KBOI 281120Z 2812/2912 14008KT P6SM SCT120
     FM281300 30012KT P6SM SCT035 BKN060
     FM281600 31012G22KT P6SM SCT060 BKN200
     FM290000 31009KT P6SM SCT200
     FM290300 VRB05KT P6SM SKC=



000
FTUS45 KBOI 281120
TAFBNO
TAF
KBNO 281120Z 2812/2912 25015KT P6SM SCT030 BKN045
     FM282300 27009KT P6SM SCT250
     FM290500 VRB05KT P6SM SKC=



000
FTUS45 KBOI 281120
TAFTWF
TAF
KTWF 281120Z 2812/2912 20015KT P6SM SKC
     FM281500 25020G30KT P6SM SCT040 BKN090
     FM281800 27025G35KT P6SM SCT060 BKN200
     FM290200 24015KT P6SM SCT200
     FM290600 20010KT P6SM SKC=



000
FTUS45 KBOI 281120
TAFBKE
TAF
KBKE 281120Z 2812/2912 31015G25KT P6SM VCSH SCT035 OVC050
      TEMPO 2812/2814 -SHRA BKN035
     FM281500 31015KT P6SM SCT080 BKN150
     FM290000 31010KT P6SM SCT250
     FM290400 VRB03KT P6SM SKC=



000
FTUS45 KBOI 281120
TAFBOI
TAF
KBOI 281120Z 2812/2912 14008KT P6SM SCT120
     FM281300 30012KT P6SM SCT035 BKN060
     FM281600 31012G22KT P6SM SCT060 BKN200
     FM290000 31009KT P6SM SCT200
     FM290300 VRB05KT P6SM SKC=



000
FTUS45 KBOI 281120
TAFJER
TAF
KJER 281120Z 2812/2912 20008KT P6SM SKC
     FM281500 24020G30KT P6SM SCT040 BKN100
     FM281800 25025G35KT P6SM SCT060 BKN200
     FM290300 24010KT P6SM SKC=



000
FTUS45 KBOI 281120
TAFBOI
TAF
KBOI 281120Z 2812/2912 14008KT P6SM SCT120
     FM281300 30012KT P6SM SCT035 BKN060
     FM281600 31012G22KT P6SM SCT060 BKN200
     FM290000 31009KT P6SM SCT200
     FM290300 VRB05KT P6SM SKC=



000
FTUS45 KBOI 281120
TAFJER
TAF
KJER 281120Z 2812/2912 20008KT P6SM SKC
     FM281500 24020G30KT P6SM SCT040 BKN100
     FM281800 25025G35KT P6SM SCT060 BKN200
     FM290300 24010KT P6SM SKC=



000
FTUS45 KBOI 281120
TAFBOI
TAF
KBOI 281120Z 2812/2912 14008KT P6SM SCT120
     FM281300 30012KT P6SM SCT035 BKN060
     FM281600 31012G22KT P6SM SCT060 BKN200
     FM290000 31009KT P6SM SCT200
     FM290300 VRB05KT P6SM SKC=



000
FTUS45 KBOI 281120
TAFBNO
TAF
KBNO 281120Z 2812/2912 25015KT P6SM SCT030 BKN045
     FM282300 27009KT P6SM SCT250
     FM290500 VRB05KT P6SM SKC=



000
FTUS45 KBOI 281120
TAFTWF
TAF
KTWF 281120Z 2812/2912 20015KT P6SM SKC
     FM281500 25020G30KT P6SM SCT040 BKN090
     FM281800 27025G35KT P6SM SCT060 BKN200
     FM290200 24015KT P6SM SCT200
     FM290600 20010KT P6SM SKC=



000
FTUS45 KBOI 281120
TAFMYL
TAF
KMYL 281120Z 2812/2912 29006KT P6SM VCSH SCT030 OVC050
     FM281600 30008KT P6SM VCSH SCT030 BKN050
     FM282000 25010KT P6SM SCT050 BKN100
     FM290300 VRB03KT P6SM SKC=



000
FTUS45 KBOI 281120
TAFBKE
TAF
KBKE 281120Z 2812/2912 31015G25KT P6SM VCSH SCT035 OVC050
      TEMPO 2812/2814 -SHRA BKN035
     FM281500 31015KT P6SM SCT080 BKN150
     FM290000 31010KT P6SM SCT250
     FM290400 VRB03KT P6SM SKC=



000
FTUS45 KBOI 281120
TAFMYL
TAF
KMYL 281120Z 2812/2912 29006KT P6SM VCSH SCT030 OVC050
     FM281600 30008KT P6SM VCSH SCT030 BKN050
     FM282000 25010KT P6SM SCT050 BKN100
     FM290300 VRB03KT P6SM SKC=



000
FTUS45 KBOI 281120
TAFTWF
TAF
KTWF 281120Z 2812/2912 20015KT P6SM SKC
     FM281500 25020G30KT P6SM SCT040 BKN090
     FM281800 27025G35KT P6SM SCT060 BKN200
     FM290200 24015KT P6SM SCT200
     FM290600 20010KT P6SM SKC=



000
FTUS45 KBOI 281120
TAFJER
TAF
KJER 281120Z 2812/2912 20008KT P6SM SKC
     FM281500 24020G30KT P6SM SCT040 BKN100
     FM281800 25025G35KT P6SM SCT060 BKN200
     FM290300 24010KT P6SM SKC=



000
FTUS45 KBOI 281120
TAFJER
TAF
KJER 281120Z 2812/2912 20008KT P6SM SKC
     FM281500 24020G30KT P6SM SCT040 BKN100
     FM281800 25025G35KT P6SM SCT060 BKN200
     FM290300 24010KT P6SM SKC=



000
FTUS45 KBOI 281120
TAFBNO
TAF
KBNO 281120Z 2812/2912 25015KT P6SM SCT030 BKN045
     FM282300 27009KT P6SM SCT250
     FM290500 VRB05KT P6SM SKC=



000
FTUS45 KBOI 280520
TAFMYL
TAF
KMYL 280520Z 2806/2906 18008KT P6SM VCSH SCT080 BKN150
     FM281100 22008KT P6SM -SHRA SCT015 BKN025 OVC050
     FM281400 28009KT P6SM SCT025 BKN050
     FM290300 VRB05KT P6SM SKC=



000
FTUS45 KBOI 280520
TAFBOI
TAF
KBOI 280520Z 2806/2906 14010KT P6SM SKC
     FM280800 17011KT P6SM BKN150
     FM281200 30008G19KT P6SM VCSH BKN050 OVC200
     FM281600 31012G22KT P6SM FEW050
     FM290200 31007KT P6SM SKC=



000
FTUS45 KBOI 280520
TAFTWF
TAF
KTWF 280520Z 2806/2906 18007KT P6SM SKC
     FM280700 22015KT P6SM SKC
     FM281400 27025G35KT P6SM BKN040 BKN150
     FM282100 27020G30KT P6SM FEW040
     FM290300 21011KT P6SM SKC=



000
FTUS45 KBOI 280520
TAFBOI
TAF
KBOI 280520Z 2806/2906 14010KT P6SM SKC
     FM280800 17011KT P6SM BKN150
     FM281200 30008G19KT P6SM VCSH BKN050 OVC200
     FM281600 31012G22KT P6SM FEW050
     FM290200 31007KT P6SM SKC=



000
FTUS45 KBOI 280520
TAFBNO
TAF
KBNO 280520Z 2806/2906 21007KT P6SM SCT100 OVC200
     FM280800 25015G25KT P6SM VCSH BKN050
      TEMPO 2808/2811 -SHRA BKN040 OVC080
     FM281200 27005KT P6SM SCT050=



000
FTUS45 KBOI 280520
TAFBNO
TAF
KBNO 280520Z 2806/2906 21007KT P6SM SCT100 OVC200
     FM280800 25015G25KT P6SM VCSH BKN050
      TEMPO 2808/2811 -SHRA BKN040 OVC080
     FM281200 27005KT P6SM SCT050=



000
FTUS45 KBOI 280520
TAFBKE
TAF
KBKE 280520Z 2806/2906 10011KT P6SM FEW100
     FM280800 31015G25KT P6SM VCSH SCT050 OVC080
      TEMPO 2810/2813 -SHRA OVC050
     FM281400 31012KT P6SM SCT050 SCT200
     FM290000 VRB05KT P6SM FEW250=



000
FTUS45 KBOI 280520
TAFBOI
TAF
KBOI 280520Z 2806/2906 14010KT P6SM SKC
     FM280800 17011KT P6SM BKN150
     FM281200 30008G19KT P6SM VCSH BKN050 OVC200
     FM281600 31012G22KT P6SM FEW050
     FM290200 31007KT P6SM SKC=



000
FTUS45 KBOI 280520
TAFBKE
TAF
KBKE 280520Z 2806/2906 10011KT P6SM FEW100
     FM280800 31015G25KT P6SM VCSH SCT050 OVC080
      TEMPO 2810/2813 -SHRA OVC050
     FM281400 31012KT P6SM SCT050 SCT200
     FM290000 VRB05KT P6SM FEW250=



000
FTUS45 KBOI 280520
TAFMYL
TAF
KMYL 280520Z 2806/2906 18008KT P6SM VCSH SCT080 BKN150
     FM281100 22008KT P6SM -SHRA SCT015 BKN025 OVC050
     FM281400 28009KT P6SM SCT025 BKN050
     FM290300 VRB05KT P6SM SKC=



000
FTUS45 KBOI 280520
TAFJER
TAF
KJER 280520Z 2806/2906 06008KT P6SM SKC
     FM281200 22013KT P6SM SKC
     FM281400 25025G35KT P6SM BKN040 BKN150
     FM282100 25020G30KT P6SM FEW040
     FM290300 24011KT P6SM SKC=



000
FTUS45 KBOI 280520
TAFBNO
TAF
KBNO 280520Z 2806/2906 21007KT P6SM SCT100 OVC200
     FM280800 25015G25KT P6SM VCSH BKN050
      TEMPO 2808/2811 -SHRA BKN040 OVC080
     FM281200 27005KT P6SM SCT050=



000
FTUS45 KBOI 280520
TAFTWF
TAF
KTWF 280520Z 2806/2906 18007KT P6SM SKC
     FM280700 22015KT P6SM SKC
     FM281400 27025G35KT P6SM BKN040 BKN150
     FM282100 27020G30KT P6SM FEW040
     FM290300 21011KT P6SM SKC=



000
FTUS45 KBOI 280520
TAFBKE
TAF
KBKE 280520Z 2806/2906 10011KT P6SM FEW100
     FM280800 31015G25KT P6SM VCSH SCT050 OVC080
      TEMPO 2810/2813 -SHRA OVC050
     FM281400 31012KT P6SM SCT050 SCT200
     FM290000 VRB05KT P6SM FEW250=



000
FTUS45 KBOI 280520
TAFTWF
TAF
KTWF 280520Z 2806/2906 18007KT P6SM SKC
     FM280700 22015KT P6SM SKC
     FM281400 27025G35KT P6SM BKN040 BKN150
     FM282100 27020G30KT P6SM FEW040
     FM290300 21011KT P6SM SKC=



000
FTUS45 KBOI 280520
TAFBKE
TAF
KBKE 280520Z 2806/2906 10011KT P6SM FEW100
     FM280800 31015G25KT P6SM VCSH SCT050 OVC080
      TEMPO 2810/2813 -SHRA OVC050
     FM281400 31012KT P6SM SCT050 SCT200
     FM290000 VRB05KT P6SM FEW250=



000
FTUS45 KBOI 280520
TAFMYL
TAF
KMYL 280520Z 2806/2906 18008KT P6SM VCSH SCT080 BKN150
     FM281100 22008KT P6SM -SHRA SCT015 BKN025 OVC050
     FM281400 28009KT P6SM SCT025 BKN050
     FM290300 VRB05KT P6SM SKC=



000
FTUS45 KBOI 280520
TAFMYL
TAF
KMYL 280520Z 2806/2906 18008KT P6SM VCSH SCT080 BKN150
     FM281100 22008KT P6SM -SHRA SCT015 BKN025 OVC050
     FM281400 28009KT P6SM SCT025 BKN050
     FM290300 VRB05KT P6SM SKC=



000
FTUS45 KBOI 280520
TAFJER
TAF
KJER 280520Z 2806/2906 06008KT P6SM SKC
     FM281200 22013KT P6SM SKC
     FM281400 25025G35KT P6SM BKN040 BKN150
     FM282100 25020G30KT P6SM FEW040
     FM290300 24011KT P6SM SKC=



000
FTUS45 KBOI 280520
TAFTWF
TAF
KTWF 280520Z 2806/2906 18007KT P6SM SKC
     FM280700 22015KT P6SM SKC
     FM281400 27025G35KT P6SM BKN040 BKN150
     FM282100 27020G30KT P6SM FEW040
     FM290300 21011KT P6SM SKC=



000
FTUS45 KBOI 280520
TAFBOI
TAF
KBOI 280520Z 2806/2906 14010KT P6SM SKC
     FM280800 17011KT P6SM BKN150
     FM281200 30008G19KT P6SM VCSH BKN050 OVC200
     FM281600 31012G22KT P6SM FEW050
     FM290200 31007KT P6SM SKC=



000
FTUS45 KBOI 280520
TAFJER
TAF
KJER 280520Z 2806/2906 06008KT P6SM SKC
     FM281200 22013KT P6SM SKC
     FM281400 25025G35KT P6SM BKN040 BKN150
     FM282100 25020G30KT P6SM FEW040
     FM290300 24011KT P6SM SKC=



000
FTUS45 KBOI 280520
TAFJER
TAF
KJER 280520Z 2806/2906 06008KT P6SM SKC
     FM281200 22013KT P6SM SKC
     FM281400 25025G35KT P6SM BKN040 BKN150
     FM282100 25020G30KT P6SM FEW040
     FM290300 24011KT P6SM SKC=



000
FTUS45 KBOI 280520
TAFBNO
TAF
KBNO 280520Z 2806/2906 21007KT P6SM SCT100 OVC200
     FM280800 25015G25KT P6SM VCSH BKN050
      TEMPO 2808/2811 -SHRA BKN040 OVC080
     FM281200 27005KT P6SM SCT050=



000
FTUS45 KBOI 272333
TAFBKE
TAF
KBKE 272333Z 2800/2824 10012KT P6SM FEW250
     FM280800 31015G25KT P6SM SCT050 OVC080
      TEMPO 2810/2814 -SHRA OVC050
     FM281400 31012KT P6SM SCT050 SCT200=



000
FTUS45 KBOI 272333
TAFJER
TAF
KJER 272333Z 2800/2824 26010KT P6SM SKC
     FM280200 06008KT P6SM SKC
     FM281200 22013KT P6SM SKC
     FM281400 27025G35KT P6SM BKN150=



000
FTUS45 KBOI 272333
TAFMYL
TAF
KMYL 272333Z 2800/2824 18008KT P6SM SKC
     FM281100 22008KT P6SM -SHRA SCT015 BKN025 OVC050
     FM281700 28009KT P6SM SCT050 SCT150=



000
FTUS45 KBOI 272333
TAFBNO
TAF
KBNO 272333Z 2800/2824 18006KT P6SM SKC
     FM280200 25007KT P6SM SCT100 OVC200
     FM280800 25015G25KT P6SM BKN080
      TEMPO 2809/2812 -SHRA BKN050 OVC080
     FM281200 27009KT P6SM SCT200=



000
FTUS45 KBOI 272333
TAFTWF
TAF
KTWF 272333Z 2800/2824 33005KT P6SM SKC
     FM280200 18007KT P6SM SKC
     FM280700 22015KT P6SM SKC
     FM281400 27025G35KT P6SM BKN150=



000
FTUS45 KBOI 272333
TAFBOI
TAF
KBOI 272333Z 2800/2824 13007KT P6SM SKC
     FM280800 14012KT P6SM BKN150
     FM281100 30008G19KT P6SM VCSH BKN050
     FM281600 31012G22KT P6SM SCT200=



000
FTUS45 KBOI 272333
TAFBKE
TAF
KBKE 272333Z 2800/2824 10012KT P6SM FEW250
     FM280800 31015G25KT P6SM SCT050 OVC080
      TEMPO 2810/2814 -SHRA OVC050
     FM281400 31012KT P6SM SCT050 SCT200=



000
FTUS45 KBOI 272333
TAFTWF
TAF
KTWF 272333Z 2800/2824 33005KT P6SM SKC
     FM280200 18007KT P6SM SKC
     FM280700 22015KT P6SM SKC
     FM281400 27025G35KT P6SM BKN150=



000
FTUS45 KBOI 272333
TAFBOI
TAF
KBOI 272333Z 2800/2824 13007KT P6SM SKC
     FM280800 14012KT P6SM BKN150
     FM281100 30008G19KT P6SM VCSH BKN050
     FM281600 31012G22KT P6SM SCT200=



000
FTUS45 KBOI 272333
TAFMYL
TAF
KMYL 272333Z 2800/2824 18008KT P6SM SKC
     FM281100 22008KT P6SM -SHRA SCT015 BKN025 OVC050
     FM281700 28009KT P6SM SCT050 SCT150=



000
FTUS45 KBOI 272333
TAFBKE
TAF
KBKE 272333Z 2800/2824 10012KT P6SM FEW250
     FM280800 31015G25KT P6SM SCT050 OVC080
      TEMPO 2810/2814 -SHRA OVC050
     FM281400 31012KT P6SM SCT050 SCT200=



000
FTUS45 KBOI 272333
TAFMYL
TAF
KMYL 272333Z 2800/2824 18008KT P6SM SKC
     FM281100 22008KT P6SM -SHRA SCT015 BKN025 OVC050
     FM281700 28009KT P6SM SCT050 SCT150=



000
FTUS45 KBOI 272333
TAFBOI
TAF
KBOI 272333Z 2800/2824 13007KT P6SM SKC
     FM280800 14012KT P6SM BKN150
     FM281100 30008G19KT P6SM VCSH BKN050
     FM281600 31012G22KT P6SM SCT200=



000
FTUS45 KBOI 272333
TAFBNO
TAF
KBNO 272333Z 2800/2824 18006KT P6SM SKC
     FM280200 25007KT P6SM SCT100 OVC200
     FM280800 25015G25KT P6SM BKN080
      TEMPO 2809/2812 -SHRA BKN050 OVC080
     FM281200 27009KT P6SM SCT200=



000
FTUS45 KBOI 272333
TAFBNO
TAF
KBNO 272333Z 2800/2824 18006KT P6SM SKC
     FM280200 25007KT P6SM SCT100 OVC200
     FM280800 25015G25KT P6SM BKN080
      TEMPO 2809/2812 -SHRA BKN050 OVC080
     FM281200 27009KT P6SM SCT200=



000
FTUS45 KBOI 272333
TAFTWF
TAF
KTWF 272333Z 2800/2824 33005KT P6SM SKC
     FM280200 18007KT P6SM SKC
     FM280700 22015KT P6SM SKC
     FM281400 27025G35KT P6SM BKN150=



000
FTUS45 KBOI 272333
TAFJER
TAF
KJER 272333Z 2800/2824 26010KT P6SM SKC
     FM280200 06008KT P6SM SKC
     FM281200 22013KT P6SM SKC
     FM281400 27025G35KT P6SM BKN150=



000
FTUS45 KBOI 272333
TAFJER
TAF
KJER 272333Z 2800/2824 26010KT P6SM SKC
     FM280200 06008KT P6SM SKC
     FM281200 22013KT P6SM SKC
     FM281400 27025G35KT P6SM BKN150=



000
FTUS45 KBOI 272333
TAFBKE
TAF
KBKE 272333Z 2800/2824 10012KT P6SM FEW250
     FM280800 31015G25KT P6SM SCT050 OVC080
      TEMPO 2810/2814 -SHRA OVC050
     FM281400 31012KT P6SM SCT050 SCT200=



000
FTUS45 KBOI 272333
TAFJER
TAF
KJER 272333Z 2800/2824 26010KT P6SM SKC
     FM280200 06008KT P6SM SKC
     FM281200 22013KT P6SM SKC
     FM281400 27025G35KT P6SM BKN150=



000
FTUS45 KBOI 272333
TAFBOI
TAF
KBOI 272333Z 2800/2824 13007KT P6SM SKC
     FM280800 14012KT P6SM BKN150
     FM281100 30008G19KT P6SM VCSH BKN050
     FM281600 31012G22KT P6SM SCT200=



000
FTUS45 KBOI 272333
TAFMYL
TAF
KMYL 272333Z 2800/2824 18008KT P6SM SKC
     FM281100 22008KT P6SM -SHRA SCT015 BKN025 OVC050
     FM281700 28009KT P6SM SCT050 SCT150=



000
FTUS45 KBOI 272333
TAFTWF
TAF
KTWF 272333Z 2800/2824 33005KT P6SM SKC
     FM280200 18007KT P6SM SKC
     FM280700 22015KT P6SM SKC
     FM281400 27025G35KT P6SM BKN150=



000
FTUS45 KBOI 272333
TAFBNO
TAF
KBNO 272333Z 2800/2824 18006KT P6SM SKC
     FM280200 25007KT P6SM SCT100 OVC200
     FM280800 25015G25KT P6SM BKN080
      TEMPO 2809/2812 -SHRA BKN050 OVC080
     FM281200 27009KT P6SM SCT200=



000
FTUS45 KBOI 271723
TAFBOI
TAF
KBOI 271723Z 2718/2818 13007KT P6SM SKC
     FM280800 14012KT P6SM SCT050 BKN100
     FM281100 30015G25KT P6SM VCSH BKN050
     FM281500 31017G27KT P6SM SCT200=



000
FTUS45 KBOI 271723
TAFBKE
TAF
KBKE 271723Z 2718/2818 12009KT P6SM FEW250
     FM280300 VRB05KT P6SM SCT100 OVC200
     FM280900 31015G25KT P6SM -SHRA OVC050
     FM281400 31010KT P6SM SCT050 SCT200=



000
FTUS45 KBOI 271723
TAFJER
TAF
KJER 271723Z 2718/2818 06010KT P6SM SKC
     FM281200 22015G25KT P6SM BKN080
     FM281600 25025G35KT P6SM SCT200=



000
FTUS45 KBOI 271723
TAFTWF
TAF
KTWF 271723Z 2718/2818 VRB05KT P6SM SKC
     FM272000 31008KT P6SM SKC
     FM280200 18007KT P6SM SKC
     FM281200 23015G25KT P6SM BKN080
     FM281700 24025G35KT P6SM SCT200=



000
FTUS45 KBOI 271723
TAFMYL
TAF
KMYL 271723Z 2718/2818 VRB05KT P6SM SKC
     FM281100 22008KT P6SM -SHRA SCT015 BKN025 OVC050
     FM281700 28006KT P6SM SCT050 SCT150=



000
FTUS45 KBOI 271723
TAFBNO
TAF
KBNO 271723Z 2718/2818 VRB04KT P6SM SKC
     FM272000 16008KT P6SM FEW250
     FM280200 25007KT P6SM SCT100 OVC200
     FM280900 25015G25KT P6SM -SHRA OVC050
     FM281400 26008KT P6SM SCT050 SCT200=



000
FTUS45 KBOI 271723
TAFTWF
TAF
KTWF 271723Z 2718/2818 VRB05KT P6SM SKC
     FM272000 31008KT P6SM SKC
     FM280200 18007KT P6SM SKC
     FM281200 23015G25KT P6SM BKN080
     FM281700 24025G35KT P6SM SCT200=



000
FTUS45 KBOI 271723
TAFMYL
TAF
KMYL 271723Z 2718/2818 VRB05KT P6SM SKC
     FM281100 22008KT P6SM -SHRA SCT015 BKN025 OVC050
     FM281700 28006KT P6SM SCT050 SCT150=



000
FTUS45 KBOI 271723
TAFBOI
TAF
KBOI 271723Z 2718/2818 13007KT P6SM SKC
     FM280800 14012KT P6SM SCT050 BKN100
     FM281100 30015G25KT P6SM VCSH BKN050
     FM281500 31017G27KT P6SM SCT200=



000
FTUS45 KBOI 271723
TAFBNO
TAF
KBNO 271723Z 2718/2818 VRB04KT P6SM SKC
     FM272000 16008KT P6SM FEW250
     FM280200 25007KT P6SM SCT100 OVC200
     FM280900 25015G25KT P6SM -SHRA OVC050
     FM281400 26008KT P6SM SCT050 SCT200=



000
FTUS45 KBOI 271723
TAFBKE
TAF
KBKE 271723Z 2718/2818 12009KT P6SM FEW250
     FM280300 VRB05KT P6SM SCT100 OVC200
     FM280900 31015G25KT P6SM -SHRA OVC050
     FM281400 31010KT P6SM SCT050 SCT200=



000
FTUS45 KBOI 271723
TAFJER
TAF
KJER 271723Z 2718/2818 06010KT P6SM SKC
     FM281200 22015G25KT P6SM BKN080
     FM281600 25025G35KT P6SM SCT200=



000
FTUS45 KBOI 271723
TAFBOI
TAF
KBOI 271723Z 2718/2818 13007KT P6SM SKC
     FM280800 14012KT P6SM SCT050 BKN100
     FM281100 30015G25KT P6SM VCSH BKN050
     FM281500 31017G27KT P6SM SCT200=



000
FTUS45 KBOI 271723
TAFMYL
TAF
KMYL 271723Z 2718/2818 VRB05KT P6SM SKC
     FM281100 22008KT P6SM -SHRA SCT015 BKN025 OVC050
     FM281700 28006KT P6SM SCT050 SCT150=



000
FTUS45 KBOI 271723
TAFBKE
TAF
KBKE 271723Z 2718/2818 12009KT P6SM FEW250
     FM280300 VRB05KT P6SM SCT100 OVC200
     FM280900 31015G25KT P6SM -SHRA OVC050
     FM281400 31010KT P6SM SCT050 SCT200=



000
FTUS45 KBOI 271723
TAFBNO
TAF
KBNO 271723Z 2718/2818 VRB04KT P6SM SKC
     FM272000 16008KT P6SM FEW250
     FM280200 25007KT P6SM SCT100 OVC200
     FM280900 25015G25KT P6SM -SHRA OVC050
     FM281400 26008KT P6SM SCT050 SCT200=



000
FTUS45 KBOI 271723
TAFJER
TAF
KJER 271723Z 2718/2818 06010KT P6SM SKC
     FM281200 22015G25KT P6SM BKN080
     FM281600 25025G35KT P6SM SCT200=



000
FTUS45 KBOI 271723
TAFBOI
TAF
KBOI 271723Z 2718/2818 13007KT P6SM SKC
     FM280800 14012KT P6SM SCT050 BKN100
     FM281100 30015G25KT P6SM VCSH BKN050
     FM281500 31017G27KT P6SM SCT200=



000
FTUS45 KBOI 271723
TAFTWF
TAF
KTWF 271723Z 2718/2818 VRB05KT P6SM SKC
     FM272000 31008KT P6SM SKC
     FM280200 18007KT P6SM SKC
     FM281200 23015G25KT P6SM BKN080
     FM281700 24025G35KT P6SM SCT200=



000
FTUS45 KBOI 271723
TAFJER
TAF
KJER 271723Z 2718/2818 06010KT P6SM SKC
     FM281200 22015G25KT P6SM BKN080
     FM281600 25025G35KT P6SM SCT200=



000
FTUS45 KBOI 271723
TAFBNO
TAF
KBNO 271723Z 2718/2818 VRB04KT P6SM SKC
     FM272000 16008KT P6SM FEW250
     FM280200 25007KT P6SM SCT100 OVC200
     FM280900 25015G25KT P6SM -SHRA OVC050
     FM281400 26008KT P6SM SCT050 SCT200=



000
FTUS45 KBOI 271723
TAFMYL
TAF
KMYL 271723Z 2718/2818 VRB05KT P6SM SKC
     FM281100 22008KT P6SM -SHRA SCT015 BKN025 OVC050
     FM281700 28006KT P6SM SCT050 SCT150=



000
FTUS45 KBOI 271723
TAFBKE
TAF
KBKE 271723Z 2718/2818 12009KT P6SM FEW250
     FM280300 VRB05KT P6SM SCT100 OVC200
     FM280900 31015G25KT P6SM -SHRA OVC050
     FM281400 31010KT P6SM SCT050 SCT200=



000
FTUS45 KBOI 271723
TAFTWF
TAF
KTWF 271723Z 2718/2818 VRB05KT P6SM SKC
     FM272000 31008KT P6SM SKC
     FM280200 18007KT P6SM SKC
     FM281200 23015G25KT P6SM BKN080
     FM281700 24025G35KT P6SM SCT200=



000
FTUS45 KBOI 271442 AAA
TAFBKE
TAF AMD
KBKE 271442Z 2715/2812 00000KT 6SM BR MIFG SCT002
     FM271600 12009KT P6SM FEW250
     FM280300 VRB05KT P6SM SCT100 OVC200
     FM280900 31015KT P6SM -SHRA OVC050=



000
FTUS45 KBOI 271442 AAA
TAFBKE
TAF AMD
KBKE 271442Z 2715/2812 00000KT 6SM BR MIFG SCT002
     FM271600 12009KT P6SM FEW250
     FM280300 VRB05KT P6SM SCT100 OVC200
     FM280900 31015KT P6SM -SHRA OVC050=



000
FTUS45 KBOI 271442 AAA
TAFBKE
TAF AMD
KBKE 271442Z 2715/2812 00000KT 6SM BR MIFG SCT002
     FM271600 12009KT P6SM FEW250
     FM280300 VRB05KT P6SM SCT100 OVC200
     FM280900 31015KT P6SM -SHRA OVC050=



000
FTUS45 KBOI 271442 AAA
TAFBKE
TAF AMD
KBKE 271442Z 2715/2812 00000KT 6SM BR MIFG SCT002
     FM271600 12009KT P6SM FEW250
     FM280300 VRB05KT P6SM SCT100 OVC200
     FM280900 31015KT P6SM -SHRA OVC050=



000
FTUS45 KBOI 271314 AAA
TAFMYL
TAF AMD
KMYL 271314Z 2713/2812 00000KT P6SM VCFG FEW002
     FM271700 VRB05KT P6SM FEW250
     FM281100 20008KT P6SM VCSH SCT025 OVC050=



000
FTUS45 KBOI 271314 AAA
TAFMYL
TAF AMD
KMYL 271314Z 2713/2812 00000KT P6SM VCFG FEW002
     FM271700 VRB05KT P6SM FEW250
     FM281100 20008KT P6SM VCSH SCT025 OVC050=



000
FTUS45 KBOI 271314 AAA
TAFMYL
TAF AMD
KMYL 271314Z 2713/2812 00000KT P6SM VCFG FEW002
     FM271700 VRB05KT P6SM FEW250
     FM281100 20008KT P6SM VCSH SCT025 OVC050=



000
FTUS45 KBOI 271314 AAA
TAFMYL
TAF AMD
KMYL 271314Z 2713/2812 00000KT P6SM VCFG FEW002
     FM271700 VRB05KT P6SM FEW250
     FM281100 20008KT P6SM VCSH SCT025 OVC050=



000
FTUS45 KBOI 271120
TAFBOI
TAF
KBOI 271120Z 2712/2812 13007KT P6SM SKC
     FM281100 14012KT P6SM VCSH SCT050 BKN100=



000
FTUS45 KBOI 271120
TAFTWF
TAF
KTWF 271120Z 2712/2812 VRB05KT P6SM SKC
     FM272000 31008KT P6SM SKC
     FM280200 18007KT P6SM SKC
     FM281100 20014KT P6SM SKC=



000
FTUS45 KBOI 271120
TAFBKE
TAF
KBKE 271120Z 2712/2812 00000KT 3SM BR SCT002
      TEMPO 2712/2713 1SM BR
     FM271300 00000KT 3/4SM BR VV002
      TEMPO 2715/2716 2SM BR SCT002
     FM271600 12009KT P6SM FEW250
     FM280300 VRB05KT P6SM SCT100 OVC200
     FM280900 31015KT P6SM -SHRA OVC050=



000
FTUS45 KBOI 271120
TAFBNO
TAF
KBNO 271120Z 2712/2812 VRB04KT P6SM SKC
     FM272000 16008KT P6SM FEW250
     FM280200 25007KT P6SM SCT100 OVC200
     FM280900 25015KT P6SM -SHRA OVC050=



000
FTUS45 KBOI 271120
TAFTWF
TAF
KTWF 271120Z 2712/2812 VRB05KT P6SM SKC
     FM272000 31008KT P6SM SKC
     FM280200 18007KT P6SM SKC
     FM281100 20014KT P6SM SKC=



000
FTUS45 KBOI 271120
TAFBKE
TAF
KBKE 271120Z 2712/2812 00000KT 3SM BR SCT002
      TEMPO 2712/2713 1SM BR
     FM271300 00000KT 3/4SM BR VV002
      TEMPO 2715/2716 2SM BR SCT002
     FM271600 12009KT P6SM FEW250
     FM280300 VRB05KT P6SM SCT100 OVC200
     FM280900 31015KT P6SM -SHRA OVC050=



000
FTUS45 KBOI 271120
TAFBOI
TAF
KBOI 271120Z 2712/2812 13007KT P6SM SKC
     FM281100 14012KT P6SM VCSH SCT050 BKN100=



000
FTUS45 KBOI 271120
TAFMYL
TAF
KMYL 271120Z 2712/2812 00000KT P6SM VCFG FEW002
      TEMPO 2712/2713 1SM BR BKN002
     FM271300 00000KT 3/4SM BR VV002
      TEMPO 2716/2717 P6SM NSW SCT002
     FM271700 VRB05KT P6SM FEW250
     FM281100 20008KT P6SM VCSH SCT025 OVC050=



000
FTUS45 KBOI 271120
TAFMYL
TAF
KMYL 271120Z 2712/2812 00000KT P6SM VCFG FEW002
      TEMPO 2712/2713 1SM BR BKN002
     FM271300 00000KT 3/4SM BR VV002
      TEMPO 2716/2717 P6SM NSW SCT002
     FM271700 VRB05KT P6SM FEW250
     FM281100 20008KT P6SM VCSH SCT025 OVC050=



000
FTUS45 KBOI 271120
TAFBNO
TAF
KBNO 271120Z 2712/2812 VRB04KT P6SM SKC
     FM272000 16008KT P6SM FEW250
     FM280200 25007KT P6SM SCT100 OVC200
     FM280900 25015KT P6SM -SHRA OVC050=



000
FTUS45 KBOI 271120
TAFJER
TAF
KJER 271120Z 2712/2812 06006KT P6SM SKC
     FM272000 VRB06KT P6SM SKC
     FM280300 07008KT P6SM SKC=



000
FTUS45 KBOI 271120
TAFJER
TAF
KJER 271120Z 2712/2812 06006KT P6SM SKC
     FM272000 VRB06KT P6SM SKC
     FM280300 07008KT P6SM SKC=



000
FTUS45 KBOI 270520
TAFTWF
TAF
KTWF 270520Z 2706/2806 20011KT P6SM SKC
     FM271700 VRB06KT P6SM SKC
     FM280200 17007KT P6SM SKC=



000
FTUS45 KBOI 270520
TAFBNO
TAF
KBNO 270520Z 2706/2806 04005KT P6SM SKC
     FM271500 17007KT P6SM FEW250
     FM272100 24010G15KT P6SM FEW100 SCT250
     FM280200 24007KT P6SM SCT100 OVC200=



000
FTUS45 KBOI 270520
TAFBKE
TAF
KBKE 270520Z 2706/2806 11005KT P6SM SKC
     FM271800 11011G17KT P6SM FEW200
     FM280300 VRB05KT P6SM BKN100 BKN200=



000
FTUS45 KBOI 270520
TAFBNO
TAF
KBNO 270520Z 2706/2806 04005KT P6SM SKC
     FM271500 17007KT P6SM FEW250
     FM272100 24010G15KT P6SM FEW100 SCT250
     FM280200 24007KT P6SM SCT100 OVC200=



000
FTUS45 KBOI 270520
TAFBOI
TAF
KBOI 270520Z 2706/2806 14006KT P6SM SKC
     FM271400 14010G17KT P6SM SKC
     FM271800 14005KT P6SM SKC
     FM280300 14011KT P6SM SCT150=



000
FTUS45 KBOI 270520
TAFMYL
TAF
KMYL 270520Z 2706/2806 VRB03KT P6SM SKC
     FM271000 00000KT P6SM VCFG FEW002
      TEMPO 2712/2714 1SM BR BKN002
     FM271500 17005KT P6SM FEW150=



000
FTUS45 KBOI 270520
TAFTWF
TAF
KTWF 270520Z 2706/2806 20011KT P6SM SKC
     FM271700 VRB06KT P6SM SKC
     FM280200 17007KT P6SM SKC=



000
FTUS45 KBOI 270520
TAFJER
TAF
KJER 270520Z 2706/2806 07009KT P6SM SKC
     FM271800 VRB05KT P6SM SKC
     FM280300 11008KT P6SM SKC=



000
FTUS45 KBOI 270520
TAFBNO
TAF
KBNO 270520Z 2706/2806 04005KT P6SM SKC
     FM271500 17007KT P6SM FEW250
     FM272100 24010G15KT P6SM FEW100 SCT250
     FM280200 24007KT P6SM SCT100 OVC200=



000
FTUS45 KBOI 270520
TAFJER
TAF
KJER 270520Z 2706/2806 07009KT P6SM SKC
     FM271800 VRB05KT P6SM SKC
     FM280300 11008KT P6SM SKC=



000
FTUS45 KBOI 270520
TAFMYL
TAF
KMYL 270520Z 2706/2806 VRB03KT P6SM SKC
     FM271000 00000KT P6SM VCFG FEW002
      TEMPO 2712/2714 1SM BR BKN002
     FM271500 17005KT P6SM FEW150=



000
FTUS45 KBOI 270520
TAFMYL
TAF
KMYL 270520Z 2706/2806 VRB03KT P6SM SKC
     FM271000 00000KT P6SM VCFG FEW002
      TEMPO 2712/2714 1SM BR BKN002
     FM271500 17005KT P6SM FEW150=



000
FTUS45 KBOI 270520
TAFTWF
TAF
KTWF 270520Z 2706/2806 20011KT P6SM SKC
     FM271700 VRB06KT P6SM SKC
     FM280200 17007KT P6SM SKC=



000
FTUS45 KBOI 270520
TAFBKE
TAF
KBKE 270520Z 2706/2806 11005KT P6SM SKC
     FM271800 11011G17KT P6SM FEW200
     FM280300 VRB05KT P6SM BKN100 BKN200=



000
FTUS45 KBOI 270520
TAFBKE
TAF
KBKE 270520Z 2706/2806 11005KT P6SM SKC
     FM271800 11011G17KT P6SM FEW200
     FM280300 VRB05KT P6SM BKN100 BKN200=



000
FTUS45 KBOI 270520
TAFBOI
TAF
KBOI 270520Z 2706/2806 14006KT P6SM SKC
     FM271400 14010G17KT P6SM SKC
     FM271800 14005KT P6SM SKC
     FM280300 14011KT P6SM SCT150=



000
FTUS45 KBOI 270520
TAFBOI
TAF
KBOI 270520Z 2706/2806 14006KT P6SM SKC
     FM271400 14010G17KT P6SM SKC
     FM271800 14005KT P6SM SKC
     FM280300 14011KT P6SM SCT150=



000
FTUS45 KBOI 270520
TAFMYL
TAF
KMYL 270520Z 2706/2806 VRB03KT P6SM SKC
     FM271000 00000KT P6SM VCFG FEW002
      TEMPO 2712/2714 1SM BR BKN002
     FM271500 17005KT P6SM FEW150=



000
FTUS45 KBOI 270520
TAFBNO
TAF
KBNO 270520Z 2706/2806 04005KT P6SM SKC
     FM271500 17007KT P6SM FEW250
     FM272100 24010G15KT P6SM FEW100 SCT250
     FM280200 24007KT P6SM SCT100 OVC200=



000
FTUS45 KBOI 270520
TAFTWF
TAF
KTWF 270520Z 2706/2806 20011KT P6SM SKC
     FM271700 VRB06KT P6SM SKC
     FM280200 17007KT P6SM SKC=



000
FTUS45 KBOI 270520
TAFJER
TAF
KJER 270520Z 2706/2806 07009KT P6SM SKC
     FM271800 VRB05KT P6SM SKC
     FM280300 11008KT P6SM SKC=



000
FTUS45 KBOI 270520
TAFBKE
TAF
KBKE 270520Z 2706/2806 11005KT P6SM SKC
     FM271800 11011G17KT P6SM FEW200
     FM280300 VRB05KT P6SM BKN100 BKN200=



000
FTUS45 KBOI 262335
TAFTWF
TAF
KTWF 262335Z 2700/2724 29008KT P6SM FEW200
     FM270300 20011KT P6SM SKC
     FM271700 VRB06KT P6SM SKC=



000
FTUS45 KBOI 262335
TAFBOI
TAF
KBOI 262335Z 2700/2724 34005KT P6SM FEW200
     FM270300 14006KT P6SM SKC
     FM271400 14010G17KT P6SM SKC
     FM271800 14010KT P6SM SKC=



000
FTUS45 KBOI 262335
TAFBNO
TAF
KBNO 262335Z 2700/2724 VRB05KT P6SM FEW250
     FM272100 24010KT P6SM FEW100=



000
FTUS45 KBOI 262335
TAFJER
TAF
KJER 262335Z 2700/2724 23007KT P6SM FEW200
     FM270400 08009KT P6SM SKC
     FM271800 VRB05KT P6SM SKC=



000
FTUS45 KBOI 262335
TAFBKE
TAF
KBKE 262335Z 2700/2724 10010G17KT P6SM FEW200
     FM270300 11005KT P6SM FEW250
     FM271800 11011G20KT P6SM FEW100=



000
FTUS45 KBOI 262335
TAFBKE
TAF
KBKE 262335Z 2700/2724 10010G17KT P6SM FEW200
     FM270300 11005KT P6SM FEW250
     FM271800 11011G20KT P6SM FEW100=



000
FTUS45 KBOI 262335
TAFJER
TAF
KJER 262335Z 2700/2724 23007KT P6SM FEW200
     FM270400 08009KT P6SM SKC
     FM271800 VRB05KT P6SM SKC=



000
FTUS45 KBOI 262335
TAFMYL
TAF
KMYL 262335Z 2700/2724 VRB03KT P6SM FEW050 SCT200
     FM270900 00000KT P6SM VCFG FEW002
      TEMPO 2710/2714 1SM BR BKN002
     FM271600 VRB05KT P6SM FEW050=



000
FTUS45 KBOI 262335
TAFMYL
TAF
KMYL 262335Z 2700/2724 VRB03KT P6SM FEW050 SCT200
     FM270900 00000KT P6SM VCFG FEW002
      TEMPO 2710/2714 1SM BR BKN002
     FM271600 VRB05KT P6SM FEW050=



000
FTUS45 KBOI 262335
TAFBNO
TAF
KBNO 262335Z 2700/2724 VRB05KT P6SM FEW250
     FM272100 24010KT P6SM FEW100=



000
FTUS45 KBOI 262335
TAFBOI
TAF
KBOI 262335Z 2700/2724 34005KT P6SM FEW200
     FM270300 14006KT P6SM SKC
     FM271400 14010G17KT P6SM SKC
     FM271800 14010KT P6SM SKC=



000
FTUS45 KBOI 262335
TAFTWF
TAF
KTWF 262335Z 2700/2724 29008KT P6SM FEW200
     FM270300 20011KT P6SM SKC
     FM271700 VRB06KT P6SM SKC=



000
FTUS45 KBOI 262335
TAFMYL
TAF
KMYL 262335Z 2700/2724 VRB03KT P6SM FEW050 SCT200
     FM270900 00000KT P6SM VCFG FEW002
      TEMPO 2710/2714 1SM BR BKN002
     FM271600 VRB05KT P6SM FEW050=



000
FTUS45 KBOI 262335
TAFTWF
TAF
KTWF 262335Z 2700/2724 29008KT P6SM FEW200
     FM270300 20011KT P6SM SKC
     FM271700 VRB06KT P6SM SKC=



000
FTUS45 KBOI 262335
TAFBOI
TAF
KBOI 262335Z 2700/2724 34005KT P6SM FEW200
     FM270300 14006KT P6SM SKC
     FM271400 14010G17KT P6SM SKC
     FM271800 14010KT P6SM SKC=



000
FTUS45 KBOI 262335
TAFMYL
TAF
KMYL 262335Z 2700/2724 VRB03KT P6SM FEW050 SCT200
     FM270900 00000KT P6SM VCFG FEW002
      TEMPO 2710/2714 1SM BR BKN002
     FM271600 VRB05KT P6SM FEW050=



000
FTUS45 KBOI 262335
TAFBNO
TAF
KBNO 262335Z 2700/2724 VRB05KT P6SM FEW250
     FM272100 24010KT P6SM FEW100=



000
FTUS45 KBOI 262335
TAFBKE
TAF
KBKE 262335Z 2700/2724 10010G17KT P6SM FEW200
     FM270300 11005KT P6SM FEW250
     FM271800 11011G20KT P6SM FEW100=



000
FTUS45 KBOI 262335
TAFBOI
TAF
KBOI 262335Z 2700/2724 34005KT P6SM FEW200
     FM270300 14006KT P6SM SKC
     FM271400 14010G17KT P6SM SKC
     FM271800 14010KT P6SM SKC=



000
FTUS45 KBOI 262335
TAFJER
TAF
KJER 262335Z 2700/2724 23007KT P6SM FEW200
     FM270400 08009KT P6SM SKC
     FM271800 VRB05KT P6SM SKC=



000
FTUS45 KBOI 262335
TAFBNO
TAF
KBNO 262335Z 2700/2724 VRB05KT P6SM FEW250
     FM272100 24010KT P6SM FEW100=



000
FTUS45 KBOI 262335
TAFTWF
TAF
KTWF 262335Z 2700/2724 29008KT P6SM FEW200
     FM270300 20011KT P6SM SKC
     FM271700 VRB06KT P6SM SKC=



000
FTUS45 KBOI 262335
TAFJER
TAF
KJER 262335Z 2700/2724 23007KT P6SM FEW200
     FM270400 08009KT P6SM SKC
     FM271800 VRB05KT P6SM SKC=



000
FTUS45 KBOI 262335
TAFBKE
TAF
KBKE 262335Z 2700/2724 10010G17KT P6SM FEW200
     FM270300 11005KT P6SM FEW250
     FM271800 11011G20KT P6SM FEW100=



000
FTUS45 KBOI 261737
TAFMYL
TAF
KMYL 261737Z 2618/2718 VRB03KT P6SM SCT050
     FM270900 00000KT 1SM BR FEW002 BKN040=



000
FTUS45 KBOI 261737
TAFBNO
TAF
KBNO 261737Z 2618/2718 VRB05KT P6SM FEW250=



000
FTUS45 KBOI 261737
TAFBOI
TAF
KBOI 261737Z 2618/2718 VRB05KT P6SM SKC=



000
FTUS45 KBOI 261737
TAFTWF
TAF
KTWF 261737Z 2618/2718 28008KT P6SM FEW250
     FM270300 18008KT P6SM SKC
     FM271700 24008KT P6SM SKC=



000
FTUS45 KBOI 261737
TAFJER
TAF
KJER 261737Z 2618/2718 23007KT P6SM FEW250
     FM270400 10008KT P6SM SKC=



000
FTUS45 KBOI 261737
TAFBNO
TAF
KBNO 261737Z 2618/2718 VRB05KT P6SM FEW250=



000
FTUS45 KBOI 261737
TAFBKE
TAF
KBKE 261737Z 2618/2718 10009KT P6SM SCT200
     FM270300 VRB05KT P6SM FEW250=



000
FTUS45 KBOI 261737
TAFBKE
TAF
KBKE 261737Z 2618/2718 10009KT P6SM SCT200
     FM270300 VRB05KT P6SM FEW250=



000
FTUS45 KBOI 261737
TAFBNO
TAF
KBNO 261737Z 2618/2718 VRB05KT P6SM FEW250=



000
FTUS45 KBOI 261737
TAFTWF
TAF
KTWF 261737Z 2618/2718 28008KT P6SM FEW250
     FM270300 18008KT P6SM SKC
     FM271700 24008KT P6SM SKC=



000
FTUS45 KBOI 261737
TAFBOI
TAF
KBOI 261737Z 2618/2718 VRB05KT P6SM SKC=



000
FTUS45 KBOI 261737
TAFTWF
TAF
KTWF 261737Z 2618/2718 28008KT P6SM FEW250
     FM270300 18008KT P6SM SKC
     FM271700 24008KT P6SM SKC=



000
FTUS45 KBOI 261737
TAFJER
TAF
KJER 261737Z 2618/2718 23007KT P6SM FEW250
     FM270400 10008KT P6SM SKC=



000
FTUS45 KBOI 261737
TAFTWF
TAF
KTWF 261737Z 2618/2718 28008KT P6SM FEW250
     FM270300 18008KT P6SM SKC
     FM271700 24008KT P6SM SKC=



000
FTUS45 KBOI 261737
TAFJER
TAF
KJER 261737Z 2618/2718 23007KT P6SM FEW250
     FM270400 10008KT P6SM SKC=



000
FTUS45 KBOI 261737
TAFBKE
TAF
KBKE 261737Z 2618/2718 10009KT P6SM SCT200
     FM270300 VRB05KT P6SM FEW250=



000
FTUS45 KBOI 261737
TAFJER
TAF
KJER 261737Z 2618/2718 23007KT P6SM FEW250
     FM270400 10008KT P6SM SKC=



000
FTUS45 KBOI 261737
TAFBKE
TAF
KBKE 261737Z 2618/2718 10009KT P6SM SCT200
     FM270300 VRB05KT P6SM FEW250=



000
FTUS45 KBOI 261737
TAFBNO
TAF
KBNO 261737Z 2618/2718 VRB05KT P6SM FEW250=



000
FTUS45 KBOI 261737
TAFMYL
TAF
KMYL 261737Z 2618/2718 VRB03KT P6SM SCT050
     FM270900 00000KT 1SM BR FEW002 BKN040=



000
FTUS45 KBOI 261737
TAFMYL
TAF
KMYL 261737Z 2618/2718 VRB03KT P6SM SCT050
     FM270900 00000KT 1SM BR FEW002 BKN040=



000
FTUS45 KBOI 261737
TAFBOI
TAF
KBOI 261737Z 2618/2718 VRB05KT P6SM SKC=



000
FTUS45 KBOI 261737
TAFMYL
TAF
KMYL 261737Z 2618/2718 VRB03KT P6SM SCT050
     FM270900 00000KT 1SM BR FEW002 BKN040=



000
FTUS45 KBOI 261737
TAFBOI
TAF
KBOI 261737Z 2618/2718 VRB05KT P6SM SKC=



000
FTUS45 KBOI 261640 AAC
TAFMYL
TAF AMD
KMYL 261640Z 2617/2712 00000KT 1/4SM FZFG VV002
     FM261800 VRB05KT P6SM SCT050
     FM270900 00000KT P6SM VCFG SKC=



000
FTUS45 KBOI 261640 AAC
TAFMYL
TAF AMD
KMYL 261640Z 2617/2712 00000KT 1/4SM FZFG VV002
     FM261800 VRB05KT P6SM SCT050
     FM270900 00000KT P6SM VCFG SKC=



000
FTUS45 KBOI 261640 AAC
TAFMYL
TAF AMD
KMYL 261640Z 2617/2712 00000KT 1/4SM FZFG VV002
     FM261800 VRB05KT P6SM SCT050
     FM270900 00000KT P6SM VCFG SKC=



000
FTUS45 KBOI 261502 AAA
TAFBKE
TAF AMD
KBKE 261502Z 2615/2712 VRB03KT P6SM FEW150
     FM261600 VRB05KT P6SM SCT200=



000
FTUS45 KBOI 261502 AAA
TAFBKE
TAF AMD
KBKE 261502Z 2615/2712 VRB03KT P6SM FEW150
     FM261600 VRB05KT P6SM SCT200=



000
FTUS45 KBOI 261406 AAB
TAFMYL
TAF AMD
KMYL 261406Z 2614/2712 00000KT 1/4SM FZFG VV002
     FM261700 VRB05KT P6SM SCT050
     FM270900 00000KT P6SM VCFG SKC=



000
FTUS45 KBOI 261406 AAB
TAFMYL
TAF AMD
KMYL 261406Z 2614/2712 00000KT 1/4SM FZFG VV002
     FM261700 VRB05KT P6SM SCT050
     FM270900 00000KT P6SM VCFG SKC=



    US Dept of Commerce
    National Oceanic and Atmospheric Administration
    National Weather Service
    1325 East West Highway
    Silver Spring, MD 20910
    Page Author: NWS Internet Services Team
Disclaimer
Information Quality
Credits
Glossary
Privacy Policy
Freedom of Information Act (FOIA)
About Us
Career Opportunities